Terminal Aerodrome Forecast
Issued by NWS Twin Cities, MN

Home | Current Version | Previous Version | Text Only | Print | Product List | Glossary Off
Versions: 1 2 3 4 5 6 7 8 9 10 11 12 13 14 15 16 17 18 19 20 21

000
FTUS43 KMPX 270520
TAFSTC
TAF
KSTC 270520Z 2706/2806 15003KT P6SM BKN100
     FM271200 15005KT P6SM VCSH SCT040 OVC080
     FM271600 16008KT P6SM BKN050 PROB30 2722/2801 -TSRA BKN040CB
      OVC100=

USA.gov is the U.S. government's official web portal to all federal, state and local government web resources and services.